createdAt,value
2023-03-20T00:02:54.073Z,20.60
2023-03-20T00:05:58.742Z,18.70
2023-03-20T00:09:07.016Z,17.85
2023-03-20T00:12:15.667Z,17.38
2023-03-20T00:15:24.250Z,25.75
2023-03-20T00:18:29.046Z,19.73
2023-03-20T00:21:34.109Z,22.05
2023-03-20T00:24:37.398Z,19.80
2023-03-20T00:27:40.721Z,23.23
2023-03-20T00:30:44.216Z,21.80
2023-03-20T00:33:47.762Z,24.35
2023-03-20T00:36:52.580Z,20.38
2023-03-20T00:39:55.919Z,22.10
2023-03-20T00:43:01.043Z,22.27
2023-03-20T00:46:06.862Z,20.45
2023-03-20T00:49:11.996Z,24.63
2023-03-20T00:52:17.735Z,27.85
2023-03-20T00:55:22.136Z,23.05
2023-03-20T00:58:27.026Z,20.73
2023-03-20T01:01:30.940Z,27.67
2023-03-20T01:04:37.212Z,26.35
2023-03-20T01:07:42.463Z,21.35
2023-03-20T01:10:46.565Z,27.95
2023-03-20T01:13:50.632Z,27.70
2023-03-20T01:16:54.073Z,23.60
2023-03-20T01:19:57.498Z,20.42
2023-03-20T01:23:02.188Z,31.02
2023-03-20T01:26:06.071Z,24.42
2023-03-20T01:29:18.025Z,25.60
2023-03-20T01:32:21.691Z,33.35
2023-03-20T01:35:28.936Z,32.63
2023-03-20T01:38:38.102Z,32.72
2023-03-20T01:41:42.283Z,29.45
2023-03-20T01:44:46.708Z,31.23
2023-03-20T01:47:50.042Z,28.55
2023-03-20T01:50:55.729Z,31.38
2023-03-20T01:54:06.600Z,27.73
2023-03-20T01:57:13.107Z,29.25
2023-03-20T02:00:17.833Z,30.05
2023-03-20T02:03:21.514Z,26.55
2023-03-20T02:06:48.643Z,27.00
2023-03-20T02:10:19.966Z,28.88
2023-03-20T02:13:41.476Z,24.20
2023-03-20T02:16:45.071Z,26.48
2023-03-20T02:20:13.124Z,21.42
2023-03-20T02:23:32.476Z,22.55
2023-03-20T02:26:53.364Z,27.30
2023-03-20T02:30:12.717Z,21.63
2023-03-20T02:33:33.409Z,17.70
2023-03-20T02:36:57.576Z,22.73
2023-03-20T02:40:06.927Z,26.48
2023-03-20T02:43:14.541Z,24.75
2023-03-20T02:46:26.090Z,24.58
2023-03-20T02:49:36.776Z,23.83
2023-03-20T02:52:44.339Z,20.27
2023-03-20T02:55:56.330Z,27.60
2023-03-20T02:59:04.505Z,23.88
2023-03-20T03:02:09.972Z,19.33
2023-03-20T03:05:15.579Z,26.63
2023-03-20T03:08:20.560Z,24.13
2023-03-20T03:11:25.371Z,21.70
2023-03-20T03:14:33.774Z,16.17
2023-03-20T03:17:38.941Z,13.68
2023-03-20T03:20:43.930Z,14.13
2023-03-20T03:23:49.145Z,14.63
2023-03-20T03:26:54.448Z,16.27
2023-03-20T03:29:58.980Z,13.82
2023-03-20T03:33:10.992Z,13.98
2023-03-20T03:36:19.349Z,13.82
2023-03-20T03:39:27.115Z,16.60
2023-03-20T03:42:34.298Z,14.80
2023-03-20T03:45:40.572Z,12.55
2023-03-20T03:48:45.966Z,12.35
2023-03-20T03:51:51.082Z,16.13
2023-03-20T03:54:57.090Z,13.85
2023-03-20T03:58:09.774Z,14.10
2023-03-20T04:01:14.388Z,14.23
2023-03-20T04:04:20.434Z,18.92
2023-03-20T04:07:27.452Z,16.58
2023-03-20T04:10:31.489Z,16.00
2023-03-20T04:13:36.131Z,15.75
2023-03-20T04:16:39.893Z,16.02
2023-03-20T04:19:43.530Z,13.65
2023-03-20T04:22:46.915Z,14.27
2023-03-20T04:25:52.158Z,14.43
2023-03-20T04:28:56.781Z,17.10
2023-03-20T04:32:32.671Z,11.40
2023-03-20T04:35:47.047Z,15.13
2023-03-20T04:38:52.172Z,13.43
2023-03-20T04:41:56.598Z,12.90
2023-03-20T04:45:01.357Z,15.95
2023-03-20T04:48:06.769Z,12.32
2023-03-20T04:51:11.606Z,14.20
2023-03-20T04:54:36.073Z,15.60
2023-03-20T04:57:39.688Z,14.55
2023-03-20T05:00:47.353Z,12.55
2023-03-20T05:03:51.812Z,13.02
2023-03-20T05:06:55.354Z,11.48
2023-03-20T05:10:02.665Z,12.20
2023-03-20T05:13:09.685Z,8.20
2023-03-20T05:16:37.358Z,11.63
2023-03-20T05:20:16.690Z,8.52
2023-03-20T05:23:46.020Z,10.80
2023-03-20T05:26:58.897Z,8.57
2023-03-20T05:30:31.392Z,8.75
2023-03-20T05:34:05.723Z,8.07
2023-03-20T05:37:23.702Z,9.32
2023-03-20T05:40:59.323Z,7.93
2023-03-20T05:44:28.982Z,5.82
2023-03-20T05:47:55.712Z,8.13
2023-03-20T05:51:19.040Z,7.50
2023-03-20T05:54:31.604Z,10.43
2023-03-20T05:57:53.654Z,10.05
2023-03-20T06:01:16.296Z,11.27
2023-03-20T06:04:28.883Z,10.45
2023-03-20T06:07:50.296Z,9.40
2023-03-20T06:10:53.602Z,8.32
2023-03-20T06:13:58.400Z,12.57
2023-03-20T06:17:10.733Z,12.80
2023-03-20T06:20:14.899Z,11.32
2023-03-20T06:23:19.748Z,14.93
2023-03-20T06:26:23.586Z,12.40
2023-03-20T06:29:36.742Z,10.85
2023-03-20T06:32:50.790Z,13.35
2023-03-20T06:35:55.976Z,12.75
2023-03-20T06:39:00.978Z,11.85
2023-03-20T06:42:06.190Z,12.25
2023-03-20T06:45:11.166Z,16.75
2023-03-20T06:48:29.854Z,12.57
2023-03-20T06:51:33.570Z,11.70
2023-03-20T06:54:38.887Z,12.80
2023-03-20T06:57:42.242Z,13.75
2023-03-20T07:00:46.500Z,10.50
2023-03-20T07:03:50.378Z,7.50
2023-03-20T07:06:59.441Z,9.75
2023-03-20T07:10:04.377Z,8.10
2023-03-20T07:13:07.843Z,9.13
2023-03-20T07:16:13.626Z,8.80
2023-03-20T07:19:18.612Z,6.90
2023-03-20T07:22:27.414Z,7.63
2023-03-20T07:25:46.066Z,7.28
2023-03-20T07:28:52.811Z,5.57
2023-03-20T07:32:00.993Z,6.47
2023-03-20T07:35:10.182Z,5.43
2023-03-20T07:38:17.356Z,7.05
2023-03-20T07:41:35.749Z,4.30
2023-03-20T07:44:42.173Z,6.60
2023-03-20T07:47:48.598Z,4.00
2023-03-20T07:50:52.608Z,5.65
2023-03-20T07:53:56.231Z,3.28
2023-03-20T07:57:01.460Z,3.65
2023-03-20T08:00:05.329Z,6.28
2023-03-20T08:03:15.809Z,4.57
2023-03-20T08:06:19.461Z,4.65
2023-03-20T08:09:22.904Z,2.53
2023-03-20T08:12:31.403Z,3.28
2023-03-20T08:15:35.268Z,2.85
2023-03-20T08:18:39.023Z,5.05
2023-03-20T08:21:42.545Z,3.65
2023-03-20T08:24:47.088Z,3.17
2023-03-20T08:27:51.953Z,3.90
2023-03-20T08:30:55.553Z,3.83
2023-03-20T08:33:59.524Z,2.20
2023-03-20T08:37:04.866Z,5.63
2023-03-20T08:40:08.886Z,3.75
2023-03-20T08:43:16.627Z,4.97
2023-03-20T08:46:20.268Z,5.25
2023-03-20T08:49:24.627Z,7.13
2023-03-20T08:52:28.671Z,2.88
2023-03-20T08:55:32.079Z,3.25
2023-03-20T08:58:37.676Z,2.42
2023-03-20T09:01:49.174Z,2.00
2023-03-20T09:04:53.471Z,1.73
2023-03-20T09:07:57.084Z,5.38
2023-03-20T09:11:00.543Z,3.53
2023-03-20T09:14:07.424Z,4.13
2023-03-20T09:17:11.090Z,5.55
2023-03-20T09:20:14.600Z,4.90
2023-03-20T09:23:18.496Z,3.00
2023-03-20T09:29:58.612Z,4.38
2023-03-20T09:33:02.241Z,2.78
2023-03-20T09:36:06.280Z,5.97
2023-03-20T09:39:09.743Z,3.42
2023-03-20T09:42:20.260Z,5.55
2023-03-20T09:45:29.898Z,4.07
2023-03-20T09:48:36.992Z,4.38
2023-03-20T09:51:47.479Z,3.97
2023-03-20T09:54:54.960Z,5.22
2023-03-20T09:57:59.588Z,4.00
2023-03-20T10:01:06.597Z,3.72
2023-03-20T10:04:10.850Z,5.85
2023-03-20T10:07:16.901Z,4.40
2023-03-20T10:10:22.225Z,6.10
2023-03-20T10:13:36.457Z,3.05
2023-03-20T10:16:50.700Z,3.65
2023-03-20T10:20:12.152Z,4.40
2023-03-20T10:23:22.570Z,3.28
2023-03-20T10:26:26.030Z,3.70
2023-03-20T10:29:35.180Z,4.38
2023-03-20T10:32:43.591Z,5.30
2023-03-20T10:35:51.371Z,6.55
2023-03-20T10:38:59.362Z,4.40
2023-03-20T10:42:04.825Z,3.08
2023-03-20T10:45:12.385Z,5.30
2023-03-20T10:48:21.986Z,5.22
2023-03-20T10:51:35.414Z,3.58
2023-03-20T10:54:41.048Z,4.72
2023-03-20T10:57:48.834Z,4.13
2023-03-20T11:00:52.735Z,6.25
2023-03-20T11:03:59.238Z,9.07
2023-03-20T11:07:03.994Z,5.95
2023-03-20T11:10:12.122Z,8.63
2023-03-20T11:13:19.274Z,4.22
2023-03-20T11:16:24.424Z,7.45
2023-03-20T11:19:29.286Z,4.97
2023-03-20T11:22:32.813Z,6.82
2023-03-20T11:25:38.716Z,7.85
2023-03-20T11:28:47.199Z,9.07
2023-03-20T11:31:54.021Z,4.72
2023-03-20T11:35:11.057Z,7.20
2023-03-20T11:38:16.438Z,12.85
2023-03-20T11:41:21.078Z,5.07
2023-03-20T11:44:26.235Z,4.70
2023-03-20T11:47:30.513Z,4.65
2023-03-20T11:50:36.888Z,5.00
2023-03-20T11:53:48.048Z,7.45
2023-03-20T11:56:55.699Z,4.47
2023-03-20T11:59:59.420Z,6.35
2023-03-20T12:03:03.652Z,9.15
2023-03-20T12:06:10.365Z,7.38
2023-03-20T12:09:18.359Z,3.08
2023-03-20T12:12:26.206Z,5.35
2023-03-20T12:15:31.322Z,5.55
2023-03-20T12:18:37.225Z,5.13
2023-03-20T12:21:47.859Z,2.60
2023-03-20T12:24:53.840Z,7.20
2023-03-20T12:28:02.785Z,3.53
2023-03-20T12:31:07.912Z,6.78
2023-03-20T12:34:14.023Z,6.38
2023-03-20T12:37:19.233Z,6.28
2023-03-20T12:40:27.869Z,5.25
2023-03-20T12:43:37.164Z,7.55
2023-03-20T12:46:45.090Z,8.57
2023-03-20T12:49:53.682Z,5.15
2023-03-20T12:53:02.461Z,3.75
2023-03-20T12:56:13.175Z,5.05
2023-03-20T12:59:20.993Z,9.10
2023-03-20T13:02:32.477Z,9.45
2023-03-20T13:05:42.140Z,5.10
2023-03-20T13:08:53.606Z,5.65
2023-03-20T13:12:00.636Z,4.07
2023-03-20T13:15:08.957Z,3.25
2023-03-20T13:18:16.405Z,11.27
2023-03-20T13:21:25.515Z,8.63
2023-03-20T13:24:40.454Z,4.20
2023-03-20T13:27:47.549Z,4.93
2023-03-20T13:30:54.474Z,8.27
2023-03-20T13:34:00.751Z,7.82
2023-03-20T13:37:22.726Z,5.85
2023-03-20T13:40:30.445Z,6.65
2023-03-20T13:43:36.652Z,7.07
2023-03-20T13:46:42.447Z,7.03
2023-03-20T13:49:48.741Z,3.17
2023-03-20T13:53:05.047Z,7.50
2023-03-20T13:56:15.075Z,7.97
2023-03-20T13:59:42.185Z,7.20
2023-03-20T14:02:55.328Z,4.68
2023-03-20T14:05:58.906Z,5.35
2023-03-20T14:09:02.327Z,6.78
2023-03-20T14:12:11.101Z,4.95
2023-03-20T14:15:14.640Z,6.72
2023-03-20T14:18:18.978Z,7.90
2023-03-20T14:21:25.440Z,4.88
2023-03-20T14:24:29.440Z,3.65
2023-03-20T14:27:44.578Z,9.18
2023-03-20T14:30:50.666Z,6.25
2023-03-20T14:34:01.333Z,5.35
2023-03-20T14:37:05.649Z,5.85
2023-03-20T14:40:16.323Z,8.65
2023-03-20T14:43:27.736Z,4.07
2023-03-20T14:46:40.489Z,3.90
2023-03-20T14:49:49.871Z,11.80
2023-03-20T14:52:56.514Z,7.97
2023-03-20T14:56:07.531Z,14.52
2023-03-20T14:59:13.195Z,5.63
2023-03-20T15:02:26.291Z,8.20
2023-03-20T15:05:30.302Z,5.90
2023-03-20T15:08:35.981Z,10.38
2023-03-20T15:11:39.819Z,3.70
2023-03-20T15:14:46.021Z,8.35
2023-03-20T15:17:50.201Z,4.43
2023-03-20T15:20:53.604Z,6.40
2023-03-20T15:23:57.148Z,6.18
2023-03-20T15:27:01.480Z,8.02
2023-03-20T15:30:09.097Z,6.93
2023-03-20T15:33:17.500Z,3.78
2023-03-20T15:36:21.866Z,3.67
2023-03-20T15:39:26.702Z,4.10
2023-03-20T15:42:32.049Z,4.40
2023-03-20T15:45:38.801Z,5.60
2023-03-20T15:48:42.710Z,7.40
2023-03-20T15:51:46.140Z,5.28
2023-03-20T15:54:50.284Z,4.45
2023-03-20T15:57:54.002Z,8.85
2023-03-20T16:00:58.802Z,6.65
2023-03-20T16:04:02.260Z,11.48
2023-03-20T16:07:05.640Z,3.80
2023-03-20T16:10:17.745Z,3.40
2023-03-20T16:13:23.475Z,5.50
2023-03-20T16:16:30.205Z,4.95
2023-03-20T16:19:33.607Z,7.68
2023-03-20T16:22:37.929Z,13.63
2023-03-20T16:25:42.025Z,5.20
2023-03-20T16:28:50.060Z,5.70
2023-03-20T16:31:57.026Z,6.07
2023-03-20T16:35:01.355Z,7.30
2023-03-20T16:38:16.084Z,5.90
2023-03-20T16:41:26.875Z,7.00
2023-03-20T16:44:31.795Z,9.88
2023-03-20T16:47:39.128Z,5.63
2023-03-20T16:50:43.567Z,16.75
2023-03-20T16:53:48.260Z,8.90
2023-03-20T16:56:53.943Z,6.22
2023-03-20T17:00:06.302Z,6.70
2023-03-20T17:03:15.201Z,6.35
2023-03-20T17:06:35.679Z,5.97
2023-03-20T17:09:56.607Z,7.28
2023-03-20T17:13:00.178Z,8.85
2023-03-20T17:16:03.633Z,8.50
2023-03-20T17:19:10.453Z,15.13
2023-03-20T17:22:15.630Z,5.30
2023-03-20T17:25:18.981Z,7.05
2023-03-20T17:28:23.303Z,4.80
2023-03-20T17:31:26.706Z,5.78
2023-03-20T17:34:31.764Z,7.43
2023-03-20T17:37:35.328Z,9.23
2023-03-20T17:40:39.077Z,5.47
2023-03-20T17:43:43.012Z,5.82
2023-03-20T17:46:57.950Z,6.82
2023-03-20T17:50:03.488Z,5.18
2023-03-20T17:53:06.994Z,9.25
2023-03-20T17:56:12.999Z,5.03
2023-03-20T17:59:16.406Z,6.22
2023-03-20T18:02:20.110Z,5.35
2023-03-20T18:05:24.975Z,5.55
2023-03-20T18:08:28.365Z,7.28
2023-03-20T18:11:33.856Z,7.88
2023-03-20T18:14:37.273Z,10.60
2023-03-20T18:17:40.638Z,11.30
2023-03-20T18:20:46.896Z,9.48
2023-03-20T18:23:50.599Z,6.40
2023-03-20T18:26:54.820Z,10.18
2023-03-20T18:29:59.070Z,8.75
2023-03-20T18:33:02.507Z,7.03
2023-03-20T18:36:07.815Z,6.05
2023-03-20T18:39:13.337Z,7.60
2023-03-20T18:42:17.167Z,11.20
2023-03-20T18:45:21.202Z,8.10
2023-03-20T18:48:24.939Z,10.35
2023-03-20T18:51:29.582Z,10.68
2023-03-20T18:54:32.946Z,9.43
2023-03-20T18:57:43.019Z,9.38
2023-03-20T19:00:46.591Z,7.82
2023-03-20T19:03:49.850Z,13.52
2023-03-20T19:06:54.515Z,10.30
2023-03-20T19:09:57.748Z,10.68
2023-03-20T19:13:01.496Z,5.72
2023-03-20T19:16:04.940Z,7.90
2023-03-20T19:19:09.364Z,10.27
2023-03-20T19:22:28.480Z,6.28
2023-03-20T19:25:33.327Z,12.20
2023-03-20T19:28:41.136Z,8.50
2023-03-20T19:31:45.281Z,14.52
2023-03-20T19:35:35.249Z,8.65
2023-03-20T19:38:15.839Z,11.02
2023-03-20T19:41:20.198Z,8.05
2023-03-20T19:44:23.581Z,6.50
2023-03-20T19:47:26.997Z,7.47
2023-03-20T19:50:33.754Z,7.15
2023-03-20T19:53:38.476Z,9.07
2023-03-20T19:56:42.565Z,7.40
2023-03-20T19:59:46.007Z,6.13
2023-03-20T20:02:49.795Z,9.32
2023-03-20T20:05:54.090Z,10.25
2023-03-20T20:08:58.669Z,11.35
2023-03-20T20:12:04.014Z,10.35
2023-03-20T20:15:07.855Z,6.90
2023-03-20T20:18:11.590Z,5.63
2023-03-20T20:24:40.915Z,11.57
2023-03-20T20:27:44.320Z,8.50
2023-03-20T20:30:48.502Z,12.13
2023-03-20T20:34:09.521Z,4.95
2023-03-20T20:40:39.886Z,6.10
2023-03-20T20:44:14.057Z,6.80
2023-03-20T20:47:06.619Z,6.65
2023-03-20T20:50:11.710Z,5.25
2023-03-20T20:53:15.262Z,6.90
2023-03-20T20:56:20.084Z,8.55
2023-03-20T20:59:23.570Z,4.45
2023-03-20T21:02:27.565Z,8.43
2023-03-20T21:05:31.124Z,6.30
2023-03-20T21:08:36.388Z,6.72
2023-03-20T21:11:41.481Z,6.20
2023-03-20T21:14:45.323Z,13.85
2023-03-20T21:17:59.954Z,3.70
2023-03-20T21:21:08.154Z,7.55
2023-03-20T21:24:31.052Z,7.25
2023-03-20T21:27:37.943Z,7.80
2023-03-20T21:31:05.989Z,7.05
2023-03-20T21:34:06.792Z,6.45
2023-03-20T21:40:33.912Z,5.05
2023-03-20T21:43:39.459Z,7.72
2023-03-20T21:47:40.309Z,5.35
2023-03-20T21:57:30.755Z,4.88
2023-03-20T22:01:12.170Z,5.53
2023-03-20T22:04:37.623Z,7.75
2023-03-20T22:07:37.510Z,5.30
2023-03-20T22:11:20.231Z,5.80
2023-03-20T22:14:41.040Z,4.88
2023-03-20T22:17:56.153Z,4.75
2023-03-20T22:21:29.689Z,7.15
2023-03-20T22:31:34.646Z,5.53
2023-03-20T22:34:53.647Z,7.35
2023-03-20T22:38:31.652Z,6.35
2023-03-20T22:44:59.271Z,4.80
2023-03-20T22:47:49.587Z,7.07
2023-03-20T22:50:54.225Z,4.72
2023-03-20T22:53:57.635Z,4.50
2023-03-20T22:57:01.538Z,5.28
2023-03-20T23:00:09.411Z,4.47
2023-03-20T23:03:25.669Z,5.05
2023-03-20T23:06:34.521Z,4.90
2023-03-20T23:09:38.239Z,9.68
2023-03-20T23:12:44.019Z,5.95
2023-03-20T23:15:47.960Z,4.85
2023-03-20T23:18:51.564Z,7.28
2023-03-20T23:21:56.914Z,5.18
2023-03-20T23:25:11.532Z,4.60
2023-03-20T23:28:18.004Z,6.07
2023-03-20T23:31:22.159Z,7.60
2023-03-20T23:34:25.678Z,7.38
2023-03-20T23:37:30.375Z,11.85
2023-03-20T23:40:33.609Z,7.22
2023-03-20T23:43:37.728Z,10.38
2023-03-20T23:46:41.114Z,7.07
2023-03-20T23:49:45.869Z,6.35
2023-03-20T23:53:01.104Z,5.80
2023-03-20T23:56:07.698Z,8.63
2023-03-20T23:59:21.076Z,6.63
